sensor_id;sensor_type;location;lat;lon;timestamp;P1;durP1;ratioP1;P2;durP2;ratioP2
69087;SDS011;56190;43.562;5.036;2023-04-01T00:00:50;10.18;;;3.03;;
69087;SDS011;56190;43.562;5.036;2023-04-01T00:03:15;10.15;;;2.45;;
69087;SDS011;56190;43.562;5.036;2023-04-01T00:05:41;9.70;;;2.40;;
69087;SDS011;56190;43.562;5.036;2023-04-01T00:08:06;7.05;;;2.13;;
69087;SDS011;56190;43.562;5.036;2023-04-01T00:10:31;9.38;;;2.42;;
69087;SDS011;56190;43.562;5.036;2023-04-01T00:12:57;9.68;;;2.95;;
69087;SDS011;56190;43.562;5.036;2023-04-01T00:15:22;10.43;;;2.75;;
69087;SDS011;56190;43.562;5.036;2023-04-01T00:17:47;8.80;;;2.60;;
69087;SDS011;56190;43.562;5.036;2023-04-01T00:20:13;10.70;;;2.60;;
69087;SDS011;56190;43.562;5.036;2023-04-01T00:22:39;7.82;;;2.67;;
69087;SDS011;56190;43.562;5.036;2023-04-01T00:25:04;10.80;;;2.85;;
69087;SDS011;56190;43.562;5.036;2023-04-01T00:27:30;8.00;;;2.88;;
69087;SDS011;56190;43.562;5.036;2023-04-01T00:29:55;9.88;;;2.90;;
69087;SDS011;56190;43.562;5.036;2023-04-01T00:32:20;8.15;;;2.67;;
69087;SDS011;56190;43.562;5.036;2023-04-01T00:34:45;12.07;;;3.45;;
69087;SDS011;56190;43.562;5.036;2023-04-01T00:37:11;10.15;;;2.85;;
69087;SDS011;56190;43.562;5.036;2023-04-01T00:39:36;12.35;;;2.60;;
69087;SDS011;56190;43.562;5.036;2023-04-01T00:42:02;9.40;;;2.70;;
69087;SDS011;56190;43.562;5.036;2023-04-01T00:44:29;10.23;;;2.70;;
69087;SDS011;56190;43.562;5.036;2023-04-01T00:46:55;11.88;;;2.60;;
69087;SDS011;56190;43.562;5.036;2023-04-01T00:49:21;10.35;;;3.00;;
69087;SDS011;56190;43.562;5.036;2023-04-01T00:51:48;11.65;;;2.40;;
69087;SDS011;56190;43.562;5.036;2023-04-01T00:54:15;10.70;;;2.88;;
69087;SDS011;56190;43.562;5.036;2023-04-01T00:56:41;10.85;;;2.80;;
69087;SDS011;56190;43.562;5.036;2023-04-01T00:59:10;8.85;;;2.50;;
69087;SDS011;56190;43.562;5.036;2023-04-01T01:01:36;11.23;;;2.45;;
69087;SDS011;56190;43.562;5.036;2023-04-01T01:04:02;9.25;;;2.85;;
69087;SDS011;56190;43.562;5.036;2023-04-01T01:06:35;10.60;;;2.60;;
69087;SDS011;56190;43.562;5.036;2023-04-01T01:09:12;11.50;;;2.90;;
69087;SDS011;56190;43.562;5.036;2023-04-01T01:14:27;8.60;;;2.70;;
69087;SDS011;56190;43.562;5.036;2023-04-01T01:17:00;7.15;;;2.42;;
69087;SDS011;56190;43.562;5.036;2023-04-01T01:27:10;9.43;;;2.30;;
69087;SDS011;56190;43.562;5.036;2023-04-01T01:29:58;8.57;;;2.20;;
69087;SDS011;56190;43.562;5.036;2023-04-01T01:32:42;9.35;;;3.08;;
69087;SDS011;56190;43.562;5.036;2023-04-01T01:35:20;9.60;;;2.45;;
69087;SDS011;56190;43.562;5.036;2023-04-01T01:37:49;13.20;;;2.35;;
69087;SDS011;56190;43.562;5.036;2023-04-01T01:40:16;8.45;;;2.00;;
69087;SDS011;56190;43.562;5.036;2023-04-01T01:42:43;9.93;;;2.35;;
69087;SDS011;56190;43.562;5.036;2023-04-01T01:45:10;13.27;;;2.63;;
69087;SDS011;56190;43.562;5.036;2023-04-01T01:47:37;10.00;;;2.35;;
69087;SDS011;56190;43.562;5.036;2023-04-01T01:50:02;8.25;;;2.10;;
69087;SDS011;56190;43.562;5.036;2023-04-01T01:52:29;6.93;;;2.17;;
69087;SDS011;56190;43.562;5.036;2023-04-01T01:54:55;10.00;;;2.50;;
69087;SDS011;56190;43.562;5.036;2023-04-01T01:57:31;7.95;;;2.03;;
69087;SDS011;56190;43.562;5.036;2023-04-01T02:00:03;6.38;;;1.95;;
69087;SDS011;56190;43.562;5.036;2023-04-01T02:02:32;9.48;;;2.65;;
69087;SDS011;56190;43.562;5.036;2023-04-01T02:04:58;10.75;;;2.33;;
69087;SDS011;56190;43.562;5.036;2023-04-01T02:07:25;10.18;;;2.40;;
69087;SDS011;56190;43.562;5.036;2023-04-01T02:09:52;11.35;;;2.88;;
69087;SDS011;56190;43.562;5.036;2023-04-01T02:12:18;10.00;;;2.65;;
69087;SDS011;56190;43.562;5.036;2023-04-01T02:14:50;10.23;;;2.40;;
69087;SDS011;56190;43.562;5.036;2023-04-01T02:17:18;8.68;;;2.00;;
69087;SDS011;56190;43.562;5.036;2023-04-01T02:19:51;9.73;;;2.47;;
69087;SDS011;56190;43.562;5.036;2023-04-01T02:22:26;10.90;;;2.30;;
69087;SDS011;56190;43.562;5.036;2023-04-01T02:24:53;10.90;;;2.30;;
69087;SDS011;56190;43.562;5.036;2023-04-01T02:27:19;10.73;;;2.88;;
69087;SDS011;56190;43.562;5.036;2023-04-01T02:29:45;11.52;;;2.85;;
69087;SDS011;56190;43.562;5.036;2023-04-01T02:32:10;8.48;;;2.47;;
69087;SDS011;56190;43.562;5.036;2023-04-01T02:34:37;11.77;;;2.70;;
69087;SDS011;56190;43.562;5.036;2023-04-01T02:37:02;11.90;;;3.13;;
69087;SDS011;56190;43.562;5.036;2023-04-01T02:39:28;14.60;;;2.65;;
69087;SDS011;56190;43.562;5.036;2023-04-01T02:41:53;11.70;;;3.05;;
69087;SDS011;56190;43.562;5.036;2023-04-01T02:44:18;16.38;;;3.67;;
69087;SDS011;56190;43.562;5.036;2023-04-01T02:46:44;15.15;;;3.85;;
69087;SDS011;56190;43.562;5.036;2023-04-01T02:49:09;13.35;;;3.28;;
69087;SDS011;56190;43.562;5.036;2023-04-01T02:51:34;13.32;;;3.38;;
69087;SDS011;56190;43.562;5.036;2023-04-01T02:54:00;14.80;;;3.55;;
69087;SDS011;56190;43.562;5.036;2023-04-01T02:56:25;17.02;;;3.35;;
69087;SDS011;56190;43.562;5.036;2023-04-01T02:58:51;19.52;;;3.13;;
69087;SDS011;56190;43.562;5.036;2023-04-01T03:01:16;13.27;;;2.83;;
69087;SDS011;56190;43.562;5.036;2023-04-01T03:03:42;12.90;;;3.13;;
69087;SDS011;56190;43.562;5.036;2023-04-01T03:06:08;11.10;;;3.33;;
69087;SDS011;56190;43.562;5.036;2023-04-01T03:08:33;13.15;;;3.03;;
69087;SDS011;56190;43.562;5.036;2023-04-01T03:10:59;13.02;;;2.72;;
69087;SDS011;56190;43.562;5.036;2023-04-01T03:13:24;13.57;;;2.95;;
69087;SDS011;56190;43.562;5.036;2023-04-01T03:15:50;10.50;;;2.58;;
69087;SDS011;56190;43.562;5.036;2023-04-01T03:18:15;11.25;;;2.92;;
69087;SDS011;56190;43.562;5.036;2023-04-01T03:20:40;11.52;;;3.50;;
69087;SDS011;56190;43.562;5.036;2023-04-01T03:23:05;12.90;;;3.90;;
69087;SDS011;56190;43.562;5.036;2023-04-01T03:25:31;11.15;;;2.95;;
69087;SDS011;56190;43.562;5.036;2023-04-01T03:27:56;13.68;;;2.90;;
69087;SDS011;56190;43.562;5.036;2023-04-01T03:30:21;12.85;;;2.97;;
69087;SDS011;56190;43.562;5.036;2023-04-01T03:32:46;14.55;;;3.20;;
69087;SDS011;56190;43.562;5.036;2023-04-01T03:35:12;11.82;;;3.28;;
69087;SDS011;56190;43.562;5.036;2023-04-01T03:37:37;13.65;;;3.35;;
69087;SDS011;56190;43.562;5.036;2023-04-01T03:40:02;11.00;;;2.88;;
69087;SDS011;56190;43.562;5.036;2023-04-01T03:42:29;8.35;;;2.55;;
69087;SDS011;56190;43.562;5.036;2023-04-01T03:44:55;10.60;;;2.88;;
69087;SDS011;56190;43.562;5.036;2023-04-01T03:47:21;14.35;;;3.00;;
69087;SDS011;56190;43.562;5.036;2023-04-01T03:49:46;15.23;;;3.00;;
69087;SDS011;56190;43.562;5.036;2023-04-01T03:52:11;14.45;;;3.08;;
69087;SDS011;56190;43.562;5.036;2023-04-01T03:54:37;13.07;;;3.20;;
69087;SDS011;56190;43.562;5.036;2023-04-01T03:57:02;13.10;;;3.17;;
69087;SDS011;56190;43.562;5.036;2023-04-01T03:59:27;16.33;;;3.58;;
69087;SDS011;56190;43.562;5.036;2023-04-01T04:01:53;9.70;;;3.08;;
69087;SDS011;56190;43.562;5.036;2023-04-01T04:04:18;14.65;;;3.28;;
69087;SDS011;56190;43.562;5.036;2023-04-01T04:06:43;13.13;;;3.17;;
69087;SDS011;56190;43.562;5.036;2023-04-01T04:09:09;10.77;;;3.25;;
69087;SDS011;56190;43.562;5.036;2023-04-01T04:11:34;13.82;;;3.15;;
69087;SDS011;56190;43.562;5.036;2023-04-01T04:13:59;11.52;;;2.90;;
69087;SDS011;56190;43.562;5.036;2023-04-01T04:16:25;10.95;;;3.55;;
69087;SDS011;56190;43.562;5.036;2023-04-01T04:18:50;17.63;;;4.15;;
69087;SDS011;56190;43.562;5.036;2023-04-01T04:21:16;15.18;;;3.10;;
69087;SDS011;56190;43.562;5.036;2023-04-01T04:23:41;14.07;;;3.40;;
69087;SDS011;56190;43.562;5.036;2023-04-01T04:26:07;12.65;;;2.95;;
69087;SDS011;56190;43.562;5.036;2023-04-01T04:28:33;14.60;;;2.92;;
69087;SDS011;56190;43.562;5.036;2023-04-01T04:30:59;12.95;;;3.33;;
69087;SDS011;56190;43.562;5.036;2023-04-01T04:33:25;15.57;;;3.70;;
69087;SDS011;56190;43.562;5.036;2023-04-01T04:35:50;16.00;;;3.83;;
69087;SDS011;56190;43.562;5.036;2023-04-01T04:38:16;12.45;;;3.10;;
69087;SDS011;56190;43.562;5.036;2023-04-01T04:40:42;14.43;;;3.40;;
69087;SDS011;56190;43.562;5.036;2023-04-01T04:43:09;15.00;;;3.58;;
69087;SDS011;56190;43.562;5.036;2023-04-01T04:45:35;9.82;;;2.80;;
69087;SDS011;56190;43.562;5.036;2023-04-01T04:48:00;15.00;;;3.58;;
69087;SDS011;56190;43.562;5.036;2023-04-01T04:50:26;11.88;;;2.70;;
69087;SDS011;56190;43.562;5.036;2023-04-01T04:52:51;11.57;;;2.85;;
69087;SDS011;56190;43.562;5.036;2023-04-01T04:55:16;14.60;;;3.45;;
69087;SDS011;56190;43.562;5.036;2023-04-01T04:57:42;13.45;;;2.92;;
69087;SDS011;56190;43.562;5.036;2023-04-01T05:00:07;12.90;;;3.53;;
69087;SDS011;56190;43.562;5.036;2023-04-01T05:02:33;14.15;;;3.28;;
69087;SDS011;56190;43.562;5.036;2023-04-01T05:04:58;14.05;;;4.07;;
69087;SDS011;56190;43.562;5.036;2023-04-01T05:07:23;14.52;;;3.38;;
69087;SDS011;56190;43.562;5.036;2023-04-01T05:09:49;15.93;;;4.32;;
69087;SDS011;56190;43.562;5.036;2023-04-01T05:12:14;14.38;;;2.90;;
69087;SDS011;56190;43.562;5.036;2023-04-01T05:14:39;13.05;;;3.55;;
69087;SDS011;56190;43.562;5.036;2023-04-01T05:17:08;14.25;;;3.33;;
69087;SDS011;56190;43.562;5.036;2023-04-01T05:19:33;13.60;;;3.42;;
69087;SDS011;56190;43.562;5.036;2023-04-01T05:21:58;16.98;;;3.63;;
69087;SDS011;56190;43.562;5.036;2023-04-01T05:24:23;12.70;;;3.33;;
69087;SDS011;56190;43.562;5.036;2023-04-01T05:26:49;13.30;;;3.65;;
69087;SDS011;56190;43.562;5.036;2023-04-01T05:29:14;12.82;;;3.00;;
69087;SDS011;56190;43.562;5.036;2023-04-01T05:31:39;15.55;;;4.03;;
69087;SDS011;56190;43.562;5.036;2023-04-01T05:34:04;16.30;;;3.67;;
69087;SDS011;56190;43.562;5.036;2023-04-01T05:36:30;16.30;;;3.35;;
69087;SDS011;56190;43.562;5.036;2023-04-01T05:38:55;13.98;;;3.47;;
69087;SDS011;56190;43.562;5.036;2023-04-01T05:41:21;12.27;;;3.30;;
69087;SDS011;56190;43.562;5.036;2023-04-01T05:43:46;13.02;;;3.15;;
69087;SDS011;56190;43.562;5.036;2023-04-01T05:46:12;14.52;;;3.17;;
69087;SDS011;56190;43.562;5.036;2023-04-01T05:48:37;12.90;;;3.53;;
69087;SDS011;56190;43.562;5.036;2023-04-01T05:51:03;15.57;;;3.75;;
69087;SDS011;56190;43.562;5.036;2023-04-01T05:53:28;15.07;;;3.55;;
69087;SDS011;56190;43.562;5.036;2023-04-01T05:55:54;17.75;;;3.58;;
69087;SDS011;56190;43.562;5.036;2023-04-01T05:58:19;12.48;;;3.38;;
69087;SDS011;56190;43.562;5.036;2023-04-01T06:00:44;10.90;;;2.78;;
69087;SDS011;56190;43.562;5.036;2023-04-01T06:03:09;10.38;;;2.90;;
69087;SDS011;56190;43.562;5.036;2023-04-01T06:05:39;11.45;;;3.00;;
69087;SDS011;56190;43.562;5.036;2023-04-01T06:08:14;11.43;;;2.78;;
69087;SDS011;56190;43.562;5.036;2023-04-01T06:10:55;15.93;;;2.90;;
69087;SDS011;56190;43.562;5.036;2023-04-01T06:16:17;12.18;;;2.83;;
69087;SDS011;56190;43.562;5.036;2023-04-01T06:21:33;11.02;;;3.25;;
69087;SDS011;56190;43.562;5.036;2023-04-01T06:26:37;12.65;;;2.67;;
69087;SDS011;56190;43.562;5.036;2023-04-01T06:29:10;11.38;;;2.90;;
69087;SDS011;56190;43.562;5.036;2023-04-01T06:34:18;7.95;;;2.92;;
69087;SDS011;56190;43.562;5.036;2023-04-01T06:44:07;12.18;;;3.30;;
69087;SDS011;56190;43.562;5.036;2023-04-01T06:46:56;9.52;;;2.55;;
69087;SDS011;56190;43.562;5.036;2023-04-01T06:54:32;12.27;;;2.80;;
69087;SDS011;56190;43.562;5.036;2023-04-01T06:59:27;9.23;;;2.55;;
69087;SDS011;56190;43.562;5.036;2023-04-01T07:01:54;11.75;;;2.60;;
69087;SDS011;56190;43.562;5.036;2023-04-01T07:04:21;13.30;;;3.08;;
69087;SDS011;56190;43.562;5.036;2023-04-01T07:06:52;11.05;;;3.05;;
69087;SDS011;56190;43.562;5.036;2023-04-01T07:09:19;12.02;;;2.67;;
69087;SDS011;56190;43.562;5.036;2023-04-01T07:11:46;14.73;;;3.80;;
69087;SDS011;56190;43.562;5.036;2023-04-01T07:14:22;15.27;;;2.67;;
69087;SDS011;56190;43.562;5.036;2023-04-01T07:17:05;12.23;;;2.33;;
69087;SDS011;56190;43.562;5.036;2023-04-01T07:19:46;11.98;;;3.00;;
69087;SDS011;56190;43.562;5.036;2023-04-01T07:24:41;10.55;;;2.78;;
69087;SDS011;56190;43.562;5.036;2023-04-01T07:27:11;9.55;;;2.70;;
69087;SDS011;56190;43.562;5.036;2023-04-01T07:29:37;12.77;;;3.25;;
69087;SDS011;56190;43.562;5.036;2023-04-01T07:32:06;12.95;;;3.35;;
69087;SDS011;56190;43.562;5.036;2023-04-01T07:34:44;13.45;;;3.53;;
69087;SDS011;56190;43.562;5.036;2023-04-01T07:37:16;11.90;;;2.70;;
69087;SDS011;56190;43.562;5.036;2023-04-01T08:00:24;8.10;;;2.13;;
69087;SDS011;56190;43.562;5.036;2023-04-01T08:05:33;11.35;;;2.17;;
69087;SDS011;56190;43.562;5.036;2023-04-01T08:13:53;8.30;;;2.40;;
69087;SDS011;56190;43.562;5.036;2023-04-01T08:21:51;9.88;;;2.55;;
69087;SDS011;56190;43.562;5.036;2023-04-01T08:24:17;11.77;;;2.30;;
69087;SDS011;56190;43.562;5.036;2023-04-01T08:26:44;8.88;;;2.47;;
69087;SDS011;56190;43.562;5.036;2023-04-01T08:29:21;9.80;;;2.30;;
69087;SDS011;56190;43.562;5.036;2023-04-01T08:34:25;10.13;;;2.30;;
69087;SDS011;56190;43.562;5.036;2023-04-01T08:36:52;7.57;;;2.03;;
69087;SDS011;56190;43.562;5.036;2023-04-01T08:39:23;12.25;;;2.33;;
69087;SDS011;56190;43.562;5.036;2023-04-01T08:52:26;7.03;;;1.75;;
69087;SDS011;56190;43.562;5.036;2023-04-01T08:55:01;7.28;;;1.90;;
69087;SDS011;56190;43.562;5.036;2023-04-01T09:15:48;7.25;;;1.80;;
69087;SDS011;56190;43.562;5.036;2023-04-01T09:28:41;4.25;;;1.45;;
69087;SDS011;56190;43.562;5.036;2023-04-01T09:36:43;7.35;;;1.73;;
69087;SDS011;56190;43.562;5.036;2023-04-01T09:44:36;7.55;;;1.50;;
69087;SDS011;56190;43.562;5.036;2023-04-01T09:55:04;8.55;;;1.48;;
69087;SDS011;56190;43.562;5.036;2023-04-01T09:57:39;6.20;;;1.52;;
69087;SDS011;56190;43.562;5.036;2023-04-01T10:00:09;5.97;;;1.48;;
69087;SDS011;56190;43.562;5.036;2023-04-01T10:10:29;7.10;;;1.55;;
69087;SDS011;56190;43.562;5.036;2023-04-01T10:20:46;5.72;;;1.33;;
69087;SDS011;56190;43.562;5.036;2023-04-01T10:23:22;7.00;;;1.63;;
69087;SDS011;56190;43.562;5.036;2023-04-01T10:46:21;6.20;;;2.00;;
69087;SDS011;56190;43.562;5.036;2023-04-01T10:49:20;7.55;;;2.42;;
69087;SDS011;56190;43.562;5.036;2023-04-01T11:02:17;8.65;;;2.38;;
69087;SDS011;56190;43.562;5.036;2023-04-01T11:07:30;5.88;;;2.40;;
69087;SDS011;56190;43.562;5.036;2023-04-01T11:26:15;7.35;;;2.00;;
69087;SDS011;56190;43.562;5.036;2023-04-01T11:34:20;6.70;;;1.80;;
69087;SDS011;56190;43.562;5.036;2023-04-01T11:44:19;6.13;;;1.98;;
69087;SDS011;56190;43.562;5.036;2023-04-01T11:46:54;5.95;;;2.05;;
69087;SDS011;56190;43.562;5.036;2023-04-01T11:49:25;4.95;;;1.70;;
69087;SDS011;56190;43.562;5.036;2023-04-01T11:57:12;3.55;;;1.30;;
69087;SDS011;56190;43.562;5.036;2023-04-01T11:59:43;7.15;;;1.58;;
69087;SDS011;56190;43.562;5.036;2023-04-01T12:10:25;3.65;;;1.08;;
69087;SDS011;56190;43.562;5.036;2023-04-01T12:18:20;3.28;;;0.77;;
69087;SDS011;56190;43.562;5.036;2023-04-01T12:28:19;1.23;;;0.60;;
69087;SDS011;56190;43.562;5.036;2023-04-01T12:41:02;3.53;;;0.68;;
69087;SDS011;56190;43.562;5.036;2023-04-01T12:56:50;2.83;;;1.20;;
69087;SDS011;56190;43.562;5.036;2023-04-01T13:02:12;4.00;;;1.30;;
69087;SDS011;56190;43.562;5.036;2023-04-01T13:10:03;3.55;;;1.27;;
69087;SDS011;56190;43.562;5.036;2023-04-01T13:20:06;4.47;;;1.33;;
69087;SDS011;56190;43.562;5.036;2023-04-01T13:28:01;4.15;;;1.23;;
69087;SDS011;56190;43.562;5.036;2023-04-01T13:30:44;5.43;;;1.58;;
69087;SDS011;56190;43.562;5.036;2023-04-01T13:35:46;3.53;;;0.82;;
69087;SDS011;56190;43.562;5.036;2023-04-01T13:56:34;3.38;;;1.00;;
69087;SDS011;56190;43.562;5.036;2023-04-01T14:31:01;2.40;;;0.85;;
69087;SDS011;56190;43.562;5.036;2023-04-01T14:36:04;3.78;;;0.85;;
69087;SDS011;56190;43.562;5.036;2023-04-01T14:41:00;4.75;;;1.10;;
69087;SDS011;56190;43.562;5.036;2023-04-01T14:43:52;4.47;;;1.30;;
69087;SDS011;56190;43.562;5.036;2023-04-01T14:46:26;4.28;;;0.90;;
69087;SDS011;56190;43.562;5.036;2023-04-01T14:48:57;3.17;;;1.13;;
69087;SDS011;56190;43.562;5.036;2023-04-01T14:51:33;3.97;;;1.23;;
69087;SDS011;56190;43.562;5.036;2023-04-01T14:59:04;4.25;;;1.00;;
69087;SDS011;56190;43.562;5.036;2023-04-01T15:09:45;5.15;;;1.40;;
69087;SDS011;56190;43.562;5.036;2023-04-01T15:12:17;7.15;;;1.20;;
69087;SDS011;56190;43.562;5.036;2023-04-01T15:33:47;9.57;;;1.20;;
69087;SDS011;56190;43.562;5.036;2023-04-01T15:43:44;6.95;;;1.38;;
69087;SDS011;56190;43.562;5.036;2023-04-01T15:46:22;4.60;;;1.00;;
69087;SDS011;56190;43.562;5.036;2023-04-01T15:49:51;7.55;;;1.30;;
69087;SDS011;56190;43.562;5.036;2023-04-01T15:59:14;2.42;;;1.00;;
69087;SDS011;56190;43.562;5.036;2023-04-01T16:01:59;3.97;;;0.90;;
69087;SDS011;56190;43.562;5.036;2023-04-01T16:12:18;2.20;;;0.40;;
69087;SDS011;56190;43.562;5.036;2023-04-01T16:29:51;2.70;;;0.55;;
69087;SDS011;56190;43.562;5.036;2023-04-01T16:32:37;3.90;;;0.82;;
69087;SDS011;56190;43.562;5.036;2023-04-01T16:37:37;5.35;;;1.50;;
69087;SDS011;56190;43.562;5.036;2023-04-01T16:42:49;3.90;;;1.13;;
69087;SDS011;56190;43.562;5.036;2023-04-01T16:47:45;4.60;;;0.95;;
69087;SDS011;56190;43.562;5.036;2023-04-01T16:50:30;2.10;;;0.90;;
69087;SDS011;56190;43.562;5.036;2023-04-01T16:53:13;3.15;;;1.02;;
69087;SDS011;56190;43.562;5.036;2023-04-01T16:56:17;2.92;;;1.10;;
69087;SDS011;56190;43.562;5.036;2023-04-01T17:01:16;4.95;;;2.40;;
69087;SDS011;56190;43.562;5.036;2023-04-01T17:03:46;3.80;;;1.20;;
69087;SDS011;56190;43.562;5.036;2023-04-01T17:13:46;4.05;;;1.23;;
69087;SDS011;56190;43.562;5.036;2023-04-01T17:19:02;3.55;;;1.20;;
69087;SDS011;56190;43.562;5.036;2023-04-01T17:21:46;3.78;;;1.30;;
69087;SDS011;56190;43.562;5.036;2023-04-01T17:26:46;4.38;;;1.50;;
69087;SDS011;56190;43.562;5.036;2023-04-01T17:49:42;8.05;;;1.77;;
69087;SDS011;56190;43.562;5.036;2023-04-01T17:54:43;5.10;;;1.35;;
69087;SDS011;56190;43.562;5.036;2023-04-01T17:57:36;3.92;;;1.40;;
69087;SDS011;56190;43.562;5.036;2023-04-01T18:22:39;2.58;;;0.65;;
69087;SDS011;56190;43.562;5.036;2023-04-01T18:27:38;2.35;;;0.50;;
69087;SDS011;56190;43.562;5.036;2023-04-01T18:32:42;1.33;;;0.55;;
69087;SDS011;56190;43.562;5.036;2023-04-01T18:40:38;0.98;;;0.40;;
69087;SDS011;56190;43.562;5.036;2023-04-01T18:43:22;2.00;;;0.80;;
69087;SDS011;56190;43.562;5.036;2023-04-01T18:45:59;0.63;;;0.40;;
69087;SDS011;56190;43.562;5.036;2023-04-01T18:51:13;0.68;;;0.30;;
69087;SDS011;56190;43.562;5.036;2023-04-01T18:53:41;0.82;;;0.40;;
69087;SDS011;56190;43.562;5.036;2023-04-01T18:56:11;1.00;;;0.40;;
69087;SDS011;56190;43.562;5.036;2023-04-01T18:59:11;0.82;;;0.40;;
69087;SDS011;56190;43.562;5.036;2023-04-01T19:01:37;0.70;;;0.30;;
69087;SDS011;56190;43.562;5.036;2023-04-01T19:06:51;1.30;;;0.85;;
69087;SDS011;56190;43.562;5.036;2023-04-01T19:09:21;2.50;;;0.63;;
69087;SDS011;56190;43.562;5.036;2023-04-01T19:11:50;1.23;;;0.70;;
69087;SDS011;56190;43.562;5.036;2023-04-01T19:14:27;1.63;;;0.75;;
69087;SDS011;56190;43.562;5.036;2023-04-01T19:17:04;1.95;;;0.60;;
69087;SDS011;56190;43.562;5.036;2023-04-01T19:19:37;1.67;;;0.70;;
69087;SDS011;56190;43.562;5.036;2023-04-01T19:32:25;2.45;;;0.65;;
69087;SDS011;56190;43.562;5.036;2023-04-01T19:37:36;2.03;;;0.70;;
69087;SDS011;56190;43.562;5.036;2023-04-01T19:42:32;1.67;;;0.95;;
69087;SDS011;56190;43.562;5.036;2023-04-01T19:50:14;2.90;;;0.65;;
69087;SDS011;56190;43.562;5.036;2023-04-01T19:52:41;1.73;;;0.60;;
69087;SDS011;56190;43.562;5.036;2023-04-01T19:55:22;1.60;;;0.60;;
69087;SDS011;56190;43.562;5.036;2023-04-01T20:03:11;3.65;;;1.30;;
69087;SDS011;56190;43.562;5.036;2023-04-01T20:10:45;3.20;;;2.78;;
69087;SDS011;56190;43.562;5.036;2023-04-01T20:15:45;17.92;;;13.77;;
69087;SDS011;56190;43.562;5.036;2023-04-01T20:18:19;90.90;;;69.18;;
69087;SDS011;56190;43.562;5.036;2023-04-01T20:21:03;35.88;;;31.10;;
69087;SDS011;56190;43.562;5.036;2023-04-01T20:23:40;46.03;;;35.05;;
69087;SDS011;56190;43.562;5.036;2023-04-01T20:26:12;15.23;;;13.45;;
69087;SDS011;56190;43.562;5.036;2023-04-01T20:28:43;6.88;;;6.22;;
69087;SDS011;56190;43.562;5.036;2023-04-01T20:41:40;2.80;;;1.50;;
69087;SDS011;56190;43.562;5.036;2023-04-01T20:44:10;4.15;;;2.00;;
69087;SDS011;56190;43.562;5.036;2023-04-01T20:49:19;2.92;;;1.25;;
69087;SDS011;56190;43.562;5.036;2023-04-01T20:51:58;3.00;;;2.10;;
69087;SDS011;56190;43.562;5.036;2023-04-01T20:57:00;2.63;;;1.10;;
69087;SDS011;56190;43.562;5.036;2023-04-01T20:59:36;3.38;;;2.40;;
69087;SDS011;56190;43.562;5.036;2023-04-01T21:10:20;2.78;;;1.63;;
69087;SDS011;56190;43.562;5.036;2023-04-01T21:12:53;3.22;;;1.05;;
69087;SDS011;56190;43.562;5.036;2023-04-01T21:20:22;2.75;;;1.88;;
69087;SDS011;56190;43.562;5.036;2023-04-01T21:22:58;2.17;;;1.40;;
69087;SDS011;56190;43.562;5.036;2023-04-01T22:03:37;1.25;;;0.50;;
69087;SDS011;56190;43.562;5.036;2023-04-01T22:06:13;1.10;;;0.75;;
69087;SDS011;56190;43.562;5.036;2023-04-01T22:21:43;0.45;;;0.22;;
69087;SDS011;56190;43.562;5.036;2023-04-01T22:24:21;0.95;;;0.32;;
69087;SDS011;56190;43.562;5.036;2023-04-01T22:27:11;1.42;;;0.30;;
69087;SDS011;56190;43.562;5.036;2023-04-01T22:32:18;0.47;;;0.30;;
69087;SDS011;56190;43.562;5.036;2023-04-01T22:39:51;1.10;;;0.30;;
69087;SDS011;56190;43.562;5.036;2023-04-01T22:50:03;4.78;;;0.50;;
69087;SDS011;56190;43.562;5.036;2023-04-01T22:52:43;1.77;;;0.40;;
69087;SDS011;56190;43.562;5.036;2023-04-01T22:55:32;1.48;;;0.50;;
69087;SDS011;56190;43.562;5.036;2023-04-01T22:58:38;0.95;;;0.55;;
69087;SDS011;56190;43.562;5.036;2023-04-01T23:00:58;0.90;;;0.50;;
69087;SDS011;56190;43.562;5.036;2023-04-01T23:03:41;2.25;;;0.80;;
69087;SDS011;56190;43.562;5.036;2023-04-01T23:06:06;1.25;;;0.40;;
69087;SDS011;56190;43.562;5.036;2023-04-01T23:11:18;1.65;;;0.68;;
69087;SDS011;56190;43.562;5.036;2023-04-01T23:13:44;1.55;;;0.63;;
69087;SDS011;56190;43.562;5.036;2023-04-01T23:16:13;0.93;;;0.52;;
69087;SDS011;56190;43.562;5.036;2023-04-01T23:18:45;0.98;;;0.60;;
69087;SDS011;56190;43.562;5.036;2023-04-01T23:21:15;1.45;;;0.50;;
69087;SDS011;56190;43.562;5.036;2023-04-01T23:26:32;1.35;;;0.40;;
69087;SDS011;56190;43.562;5.036;2023-04-01T23:28:59;1.35;;;0.40;;
69087;SDS011;56190;43.562;5.036;2023-04-01T23:33:53;1.25;;;0.50;;
69087;SDS011;56190;43.562;5.036;2023-04-01T23:36:18;0.60;;;0.25;;
69087;SDS011;56190;43.562;5.036;2023-04-01T23:38:46;0.95;;;0.35;;
69087;SDS011;56190;43.562;5.036;2023-04-01T23:41:20;0.22;;;0.22;;
69087;SDS011;56190;43.562;5.036;2023-04-01T23:43:48;0.68;;;0.47;;
69087;SDS011;56190;43.562;5.036;2023-04-01T23:46:15;2.33;;;0.40;;
69087;SDS011;56190;43.562;5.036;2023-04-01T23:48:42;1.25;;;0.47;;
69087;SDS011;56190;43.562;5.036;2023-04-01T23:51:11;0.40;;;0.40;;
69087;SDS011;56190;43.562;5.036;2023-04-01T23:53:41;0.63;;;0.38;;
69087;SDS011;56190;43.562;5.036;2023-04-01T23:56:07;0.68;;;0.38;;
